createdAt,value
2019-04-23T00:03:58.412Z,8.63
2019-04-23T00:09:02.825Z,11.60
2019-04-23T00:13:58.139Z,8.15
2019-04-23T00:18:59.354Z,13.13
2019-04-23T00:24:10.327Z,12.07
2019-04-23T00:29:11.923Z,9.25
2019-04-23T00:34:16.590Z,8.00
2019-04-23T00:39:23.686Z,9.00
2019-04-23T00:44:32.504Z,9.25
2019-04-23T00:49:32.532Z,9.28
2019-04-23T00:54:32.670Z,8.28
2019-04-23T00:59:52.205Z,9.63
2019-04-23T01:04:47.704Z,7.78
2019-04-23T01:09:54.494Z,8.48
2019-04-23T01:14:55.411Z,7.28
2019-04-23T01:20:01.708Z,7.12
2019-04-23T01:24:50.809Z,8.58
2019-04-23T01:30:38.831Z,8.43
2019-04-23T01:35:29.077Z,5.95
2019-04-23T01:40:33.008Z,6.70
2019-04-23T01:45:30.719Z,6.58
2019-04-23T01:55:46.535Z,9.85
2019-04-23T02:00:52.882Z,5.78
2019-04-23T02:11:02.994Z,7.20
2019-04-23T02:16:06.699Z,7.00
2019-04-23T02:21:16.943Z,6.42
2019-04-23T02:26:30.553Z,6.58
2019-04-23T02:36:40.513Z,7.42
2019-04-23T02:46:53.951Z,6.03
2019-04-23T03:02:17.551Z,5.42
2019-04-23T03:07:16.152Z,6.08
2019-04-23T03:12:18.529Z,5.05
2019-04-23T03:17:37.145Z,6.00
2019-04-23T03:27:44.061Z,5.08
2019-04-23T03:38:06.779Z,5.87
2019-04-23T03:43:06.391Z,5.70
2019-04-23T03:48:16.813Z,6.58
2019-04-23T03:53:14.070Z,7.22
2019-04-23T03:58:33.494Z,8.78
2019-04-23T04:08:25.976Z,5.42
2019-04-23T04:18:54.255Z,5.15
2019-04-23T04:28:51.425Z,4.83
2019-04-23T04:34:11.225Z,5.10
2019-04-23T04:44:23.672Z,5.97
2019-04-23T04:54:14.067Z,7.10
2019-04-23T04:59:17.690Z,4.30
2019-04-23T05:04:33.137Z,5.75
2019-04-23T05:24:39.935Z,7.67
2019-04-23T05:29:54.305Z,7.08
2019-04-23T05:34:55.784Z,10.63
2019-04-23T05:40:08.685Z,9.43
2019-04-23T05:45:08.304Z,12.15
2019-04-23T05:55:15.331Z,11.30
2019-04-23T06:00:26.229Z,9.95
2019-04-23T06:05:25.031Z,10.55
2019-04-23T06:10:34.039Z,10.18
2019-04-23T06:15:32.151Z,12.20
2019-04-23T06:20:45.066Z,11.57
2019-04-23T06:25:57.723Z,11.65
2019-04-23T06:30:54.413Z,9.83
2019-04-23T06:36:03.437Z,15.70
2019-04-23T06:41:00.815Z,18.52
2019-04-23T06:46:05.426Z,13.05
2019-04-23T06:51:12.807Z,13.40
2019-04-23T06:56:19.166Z,16.42
2019-04-23T07:01:17.705Z,19.70
2019-04-23T07:16:32.915Z,14.95
2019-04-23T07:21:33.553Z,16.05
2019-04-23T07:26:42.053Z,21.62
2019-04-23T07:31:53.914Z,15.20
2019-04-23T07:36:55.090Z,21.20
2019-04-23T07:42:09.346Z,14.68
2019-04-23T07:47:27.595Z,13.83
2019-04-23T07:52:23.946Z,13.70
2019-04-23T08:02:30.176Z,13.43
2019-04-23T08:07:37.226Z,28.12
2019-04-23T08:12:40.553Z,17.48
2019-04-23T08:17:43.450Z,16.35
2019-04-23T08:22:56.857Z,14.68
2019-04-23T08:27:57.489Z,16.52
2019-04-23T08:33:04.269Z,13.05
2019-04-23T08:38:24.617Z,12.68
2019-04-23T08:43:29.594Z,11.55
2019-04-23T08:48:41.662Z,13.58
2019-04-23T08:53:37.750Z,12.55
2019-04-23T09:08:45.817Z,27.27
2019-04-23T09:18:53.063Z,23.30
2019-04-23T09:23:56.840Z,20.40
2019-04-23T09:29:10.079Z,24.20
2019-04-23T09:34:11.287Z,22.62
2019-04-23T09:39:20.541Z,20.17
2019-04-23T09:44:55.933Z,14.50
2019-04-23T09:49:47.320Z,13.45
2019-04-23T09:54:58.633Z,15.15
2019-04-23T09:59:58.131Z,15.32
2019-04-23T10:04:51.879Z,10.53
2019-04-23T10:09:42.390Z,13.35
2019-04-23T10:14:56.464Z,12.85
2019-04-23T10:19:50.959Z,15.08
2019-04-23T10:24:55.306Z,13.75
2019-04-23T10:29:59.612Z,10.65
2019-04-23T10:35:14.678Z,12.88
2019-04-23T10:40:15.416Z,17.25
2019-04-23T10:45:35.176Z,18.10
2019-04-23T10:56:02.802Z,14.93
2019-04-23T11:01:19.367Z,16.40
2019-04-23T11:06:17.649Z,11.03
2019-04-23T11:11:25.041Z,14.58
2019-04-23T11:16:44.831Z,11.63
2019-04-23T11:21:33.925Z,11.97
2019-04-23T11:26:37.035Z,13.03
2019-04-23T11:31:42.966Z,11.10
2019-04-23T11:41:51.722Z,11.83
2019-04-23T11:47:09.530Z,10.72
2019-04-23T11:52:08.313Z,10.70
2019-04-23T11:57:21.569Z,10.78
2019-04-23T12:02:40.090Z,11.12
2019-04-23T12:07:50.909Z,11.85
2019-04-23T12:12:53.426Z,13.43
2019-04-23T12:18:05.349Z,14.20
2019-04-23T12:28:13.601Z,10.98
2019-04-23T12:33:30.138Z,12.98
2019-04-23T12:38:23.925Z,10.82
2019-04-23T12:53:37.749Z,18.65
2019-04-23T12:58:33.922Z,11.30
2019-04-23T13:03:49.187Z,12.50
2019-04-23T13:08:54.312Z,10.88
2019-04-23T13:14:00.838Z,11.50
2019-04-23T13:19:15.070Z,25.25
2019-04-23T13:24:11.384Z,18.15
2019-04-23T13:29:19.521Z,17.55
2019-04-23T13:34:25.348Z,19.98
2019-04-23T13:39:24.443Z,25.97
2019-04-23T13:44:33.120Z,19.70
2019-04-23T13:49:37.423Z,16.12
2019-04-23T14:10:24.520Z,19.57
2019-04-23T14:15:36.943Z,18.60
2019-04-23T14:20:27.976Z,16.37
2019-04-23T14:25:52.086Z,18.70
2019-04-23T14:30:46.572Z,21.68
2019-04-23T14:35:45.448Z,21.60
2019-04-23T14:46:27.098Z,23.30
2019-04-23T14:51:18.290Z,20.35
2019-04-23T14:56:17.316Z,21.80
2019-04-23T15:11:44.145Z,28.45
2019-04-23T15:16:44.608Z,22.27
2019-04-23T15:31:59.294Z,37.88
2019-04-23T15:37:00.853Z,40.48
2019-04-23T15:47:04.562Z,34.05
2019-04-23T15:52:10.754Z,38.05
2019-04-23T15:57:07.153Z,28.90
2019-04-23T16:01:48.314Z,37.85
2019-04-23T16:06:51.950Z,31.12
2019-04-23T16:12:17.332Z,31.23
2019-04-23T16:17:32.678Z,34.75
2019-04-23T16:22:32.114Z,29.40
2019-04-23T16:27:36.628Z,36.93
2019-04-23T16:38:01.705Z,39.25
2019-04-23T16:43:07.423Z,37.70
2019-04-23T16:48:06.578Z,33.10
2019-04-23T16:53:22.320Z,36.48
2019-04-23T16:58:23.239Z,44.80
2019-04-23T17:08:45.351Z,53.05
2019-04-23T17:13:34.444Z,38.17
2019-04-23T17:18:31.427Z,48.30
2019-04-23T17:28:59.749Z,36.05
2019-04-23T17:33:54.547Z,42.08
2019-04-23T17:39:05.407Z,56.18
2019-04-23T17:44:18.082Z,39.08
2019-04-23T17:49:15.275Z,54.03
2019-04-23T17:59:27.870Z,52.45
2019-04-23T18:04:34.791Z,52.38
2019-04-23T18:09:37.865Z,49.05
2019-04-23T18:14:42.204Z,48.38
2019-04-23T18:19:56.524Z,53.80
2019-04-23T18:30:20.723Z,39.03
2019-04-23T18:35:28.003Z,48.65
2019-04-23T18:40:40.360Z,35.05
2019-04-23T18:45:45.336Z,34.03
2019-04-23T18:56:00.336Z,29.65
2019-04-23T19:01:14.065Z,39.60
2019-04-23T19:06:21.878Z,36.58
2019-04-23T19:11:46.119Z,30.15
2019-04-23T19:16:53.181Z,25.92
2019-04-23T19:42:09.929Z,29.00
2019-04-23T19:47:33.162Z,21.48
2019-04-23T19:52:46.803Z,23.10
2019-04-23T19:57:34.000Z,19.75
2019-04-23T20:02:48.133Z,21.90
2019-04-23T20:07:50.880Z,18.07
2019-04-23T20:12:59.023Z,17.50
2019-04-23T20:17:48.811Z,17.48
2019-04-23T20:22:58.270Z,18.35
2019-04-23T20:28:17.279Z,15.25
2019-04-23T20:38:40.285Z,18.95
2019-04-23T20:43:32.447Z,15.05
2019-04-23T20:48:46.948Z,13.22
2019-04-23T20:53:43.317Z,12.78
2019-04-23T20:58:48.193Z,13.43
2019-04-23T21:03:56.851Z,13.93
2019-04-23T21:09:22.718Z,13.05
2019-04-23T21:14:22.665Z,10.05
2019-04-23T21:19:02.516Z,9.83
2019-04-23T21:24:11.253Z,13.58
2019-04-23T21:29:17.619Z,10.03
2019-04-23T21:34:44.899Z,10.08
2019-04-23T21:39:53.551Z,9.30
2019-04-23T21:44:38.562Z,10.25
2019-04-23T21:50:04.642Z,10.32
2019-04-23T21:59:55.576Z,8.80
2019-04-23T22:15:12.631Z,7.40
2019-04-23T22:25:23.712Z,8.08
2019-04-23T22:30:31.436Z,9.40
2019-04-23T22:35:42.293Z,9.93
2019-04-23T22:40:41.533Z,8.88
2019-04-23T22:45:52.679Z,7.12
2019-04-23T22:50:57.475Z,7.28
2019-04-23T22:56:01.711Z,7.12
2019-04-23T23:01:19.976Z,7.75
2019-04-23T23:11:22.798Z,7.83
2019-04-23T23:16:30.330Z,9.13
2019-04-23T23:21:43.116Z,9.75
2019-04-23T23:26:50.001Z,8.50
2019-04-23T23:37:10.562Z,9.95
2019-04-23T23:47:12.687Z,7.87
2019-04-23T23:52:09.553Z,10.10
2019-04-23T23:57:16.494Z,8.45
